Renchville, Illinois
Current Conditions -  °F | °C
As of 7:55 PM on Saturday 25 Oct 2014 (Local Time) from KC75 Reporting Station
Clear Clear  
Wind Chill: 55°   Ceiling: Unl
Heat Index: 55°   Visibility: 10mi
Dew Point: 38°   Wind: 0mph
Humidity: 53%   Direction: NA
Pressure: 29.99"   Gusts: NA
Location:  40.915°N, 89.5303°W
Report Text: KC75 260055Z AUTO 00000KT 10SM CLR 13/03 A2999 RMK AO2 T01270032
Loading
Personal Weather Stations






























Interactive Weather Map
Tropical Storm Tracking
New forecast layout! Learn more

10-Day Weather Forecast

Advertisements
Track Severe Weather on mobile